createdAt,value
2022-11-04T00:02:21.619Z,2.00
2022-11-04T00:04:49.407Z,1.67
2022-11-04T00:07:35.764Z,1.50
2022-11-04T00:10:03.534Z,1.60
2022-11-04T00:12:31.118Z,1.50
2022-11-04T00:15:18.656Z,1.43
2022-11-04T00:17:46.195Z,1.30
2022-11-04T00:20:32.666Z,1.43
2022-11-04T00:23:18.782Z,1.97
2022-11-04T00:26:05.185Z,2.17
2022-11-04T00:28:44.753Z,2.40
2022-11-04T00:31:31.251Z,1.53
2022-11-04T00:33:59.164Z,1.57
2022-11-04T00:36:27.135Z,1.50
2022-11-04T00:38:54.758Z,1.70
2022-11-04T00:41:30.168Z,1.60
2022-11-04T00:44:01.213Z,1.70
2022-11-04T00:46:30.670Z,1.67
2022-11-04T00:48:58.991Z,1.43
2022-11-04T00:51:27.041Z,1.30
2022-11-04T00:53:54.851Z,1.60
2022-11-04T00:56:22.447Z,1.57
2022-11-04T00:58:50.451Z,1.53
2022-11-04T01:01:19.329Z,1.30
2022-11-04T01:03:49.263Z,1.40
2022-11-04T01:06:17.565Z,1.23
2022-11-04T01:08:45.586Z,1.33
2022-11-04T01:11:13.588Z,1.50
2022-11-04T01:13:41.701Z,1.27
2022-11-04T01:16:11.292Z,1.40
2022-11-04T01:18:39.649Z,1.43
2022-11-04T01:21:10.185Z,1.60
2022-11-04T01:23:37.765Z,2.20
2022-11-04T01:26:06.530Z,1.67
2022-11-04T01:28:34.137Z,2.20
2022-11-04T01:31:13.764Z,1.50
2022-11-04T01:33:41.533Z,1.50
2022-11-04T01:36:10.811Z,1.43
2022-11-04T01:38:38.488Z,1.67
2022-11-04T01:41:07.046Z,1.70
2022-11-04T01:43:55.199Z,1.23
2022-11-04T01:46:25.601Z,1.03
2022-11-04T01:48:55.844Z,1.20
2022-11-04T01:51:23.671Z,1.40
2022-11-04T01:53:54.169Z,1.23
2022-11-04T01:56:22.063Z,1.50
2022-11-04T01:58:55.572Z,1.33
2022-11-04T02:01:23.484Z,1.00
2022-11-04T02:03:55.983Z,1.00
2022-11-04T02:06:23.640Z,1.00
2022-11-04T02:08:51.283Z,1.40
2022-11-04T02:11:37.651Z,1.10
2022-11-04T02:14:05.218Z,1.10
2022-11-04T02:16:45.192Z,1.10
2022-11-04T02:19:40.472Z,1.20
2022-11-04T02:22:45.468Z,1.67
2022-11-04T02:25:31.492Z,1.53
2022-11-04T02:28:10.276Z,1.20
2022-11-04T02:31:17.899Z,1.07
2022-11-04T02:34:01.492Z,0.90
2022-11-04T02:37:04.470Z,1.20
2022-11-04T02:39:42.905Z,1.10
2022-11-04T02:42:27.871Z,1.13
2022-11-04T02:45:02.754Z,0.87
2022-11-04T02:47:32.264Z,2.40
2022-11-04T02:50:32.472Z,1.10
2022-11-04T02:53:41.953Z,1.17
2022-11-04T02:56:11.731Z,1.10
2022-11-04T02:58:45.242Z,1.00
2022-11-04T03:01:17.206Z,1.03
2022-11-04T03:03:51.140Z,1.00
2022-11-04T03:06:23.132Z,1.10
2022-11-04T03:08:53.861Z,1.27
2022-11-04T03:11:26.838Z,1.37
2022-11-04T03:14:00.357Z,1.10
2022-11-04T03:16:35.888Z,1.00
2022-11-04T03:19:41.599Z,1.40
2022-11-04T03:22:17.620Z,1.37
2022-11-04T03:24:46.839Z,1.27
2022-11-04T03:27:39.259Z,1.60
2022-11-04T03:30:14.122Z,1.47
2022-11-04T03:33:10.961Z,1.27
2022-11-04T03:35:38.803Z,1.40
2022-11-04T03:38:06.536Z,1.33
2022-11-04T03:40:34.769Z,1.40
2022-11-04T03:43:14.937Z,1.50
2022-11-04T03:45:43.617Z,1.40
2022-11-04T03:48:12.851Z,1.40
2022-11-04T03:50:43.238Z,1.60
2022-11-04T03:53:13.236Z,1.43
2022-11-04T03:56:02.865Z,1.70
2022-11-04T03:58:48.475Z,1.67
2022-11-04T04:01:27.980Z,1.50
2022-11-04T04:03:58.273Z,1.60
2022-11-04T04:06:31.350Z,1.60
2022-11-04T04:09:21.494Z,1.47
2022-11-04T04:12:16.088Z,1.77
2022-11-04T04:14:49.158Z,1.33
2022-11-04T04:17:32.250Z,1.73
2022-11-04T04:20:21.839Z,1.50
2022-11-04T04:22:55.530Z,1.50
2022-11-04T04:25:45.517Z,1.50
2022-11-04T04:28:16.034Z,1.60
2022-11-04T04:30:44.373Z,1.50
2022-11-04T04:33:15.604Z,1.70
2022-11-04T04:35:57.390Z,1.37
2022-11-04T04:38:44.236Z,1.93
2022-11-04T04:41:49.897Z,1.37
2022-11-04T04:44:42.531Z,1.63
2022-11-04T04:47:19.876Z,1.90
2022-11-04T04:49:58.334Z,1.67
2022-11-04T04:52:33.419Z,1.40
2022-11-04T04:55:01.054Z,1.60
2022-11-04T04:57:50.092Z,1.40
2022-11-04T05:00:42.468Z,1.57
2022-11-04T05:04:22.570Z,1.50
2022-11-04T05:10:37.628Z,1.70
2022-11-04T05:13:32.022Z,1.80
2022-11-04T05:16:40.650Z,1.43
2022-11-04T05:22:23.392Z,2.47
2022-11-04T05:25:24.557Z,1.80
2022-11-04T05:28:19.525Z,1.77
2022-11-04T05:31:13.053Z,1.90
2022-11-04T05:33:41.570Z,1.90
2022-11-04T05:36:17.778Z,1.83
2022-11-04T05:38:51.822Z,1.77
2022-11-04T05:41:29.209Z,1.70
2022-11-04T05:43:59.630Z,2.07
2022-11-04T05:46:30.919Z,5.00
2022-11-04T05:49:01.946Z,2.20
2022-11-04T05:51:33.293Z,1.90
2022-11-04T05:54:01.645Z,2.50
2022-11-04T05:56:29.224Z,2.10
2022-11-04T05:58:56.882Z,3.20
2022-11-04T06:01:36.866Z,1.90
2022-11-04T06:04:06.005Z,2.67
2022-11-04T06:06:36.114Z,2.70
2022-11-04T06:09:04.004Z,2.60
2022-11-04T06:11:32.112Z,2.57
2022-11-04T06:14:00.048Z,2.43
2022-11-04T06:16:28.179Z,3.37
2022-11-04T06:18:59.959Z,2.63
2022-11-04T06:21:33.036Z,2.27
2022-11-04T06:24:00.787Z,2.60
2022-11-04T06:26:30.772Z,2.77
2022-11-04T06:28:58.341Z,2.60
2022-11-04T06:31:25.949Z,2.37
2022-11-04T06:33:53.488Z,2.73
2022-11-04T06:36:21.131Z,3.03
2022-11-04T06:38:48.685Z,2.43
2022-11-04T06:41:17.547Z,3.13
2022-11-04T06:43:45.361Z,2.43
2022-11-04T06:46:31.116Z,2.50
2022-11-04T06:48:59.122Z,3.73
2022-11-04T06:51:27.494Z,2.50
2022-11-04T06:53:55.082Z,3.53
2022-11-04T06:56:23.081Z,2.80
2022-11-04T06:58:51.941Z,2.23
2022-11-04T07:01:22.320Z,2.57
2022-11-04T07:03:55.268Z,2.90
2022-11-04T07:06:23.442Z,2.50
2022-11-04T07:08:52.345Z,2.23
2022-11-04T07:11:21.975Z,2.60
2022-11-04T07:13:49.541Z,3.03
2022-11-04T07:16:19.981Z,3.20
2022-11-04T07:18:49.212Z,4.80
2022-11-04T07:21:16.931Z,2.83
2022-11-04T07:23:44.540Z,2.93
2022-11-04T07:26:12.722Z,3.00
2022-11-04T07:28:40.513Z,2.63
2022-11-04T07:31:11.080Z,3.03
2022-11-04T07:33:50.226Z,2.63
2022-11-04T07:36:19.171Z,2.33
2022-11-04T07:38:47.204Z,2.30
2022-11-04T07:41:16.089Z,2.87
2022-11-04T07:43:47.924Z,3.13
2022-11-04T07:46:15.756Z,3.57
2022-11-04T07:48:43.366Z,3.90
2022-11-04T07:51:16.278Z,3.20
2022-11-04T07:53:43.974Z,3.30
2022-11-04T07:56:12.445Z,3.03
2022-11-04T07:58:41.102Z,3.20
2022-11-04T08:01:11.937Z,3.20
2022-11-04T08:03:39.977Z,2.95
2022-11-04T08:06:09.756Z,3.73
2022-11-04T08:08:37.521Z,2.60
2022-11-04T08:11:14.285Z,2.60
2022-11-04T08:13:45.095Z,3.60
2022-11-04T08:16:18.816Z,3.77
2022-11-04T08:18:48.265Z,3.60
2022-11-04T08:21:16.587Z,3.63
2022-11-04T08:23:44.511Z,3.20
2022-11-04T08:26:14.894Z,3.10
2022-11-04T08:28:42.548Z,3.50
2022-11-04T08:31:16.342Z,3.10
2022-11-04T08:33:44.649Z,3.00
2022-11-04T08:36:19.930Z,3.60
2022-11-04T08:38:47.996Z,3.40
2022-11-04T08:41:19.676Z,2.97
2022-11-04T08:43:47.991Z,3.00
2022-11-04T08:46:16.652Z,3.70
2022-11-04T08:48:45.072Z,3.50
2022-11-04T08:51:22.307Z,3.50
2022-11-04T08:53:50.050Z,2.60
2022-11-04T08:56:17.615Z,2.03
2022-11-04T08:58:45.324Z,2.63
2022-11-04T09:01:13.638Z,2.37
2022-11-04T09:03:41.945Z,3.40
2022-11-04T09:06:12.821Z,2.77
2022-11-04T09:08:41.204Z,3.13
2022-11-04T09:11:10.587Z,2.93
2022-11-04T09:13:39.809Z,2.70
2022-11-04T09:16:09.399Z,3.40
2022-11-04T09:18:37.026Z,2.53
2022-11-04T09:21:06.425Z,2.97
2022-11-04T09:23:34.344Z,2.63
2022-11-04T09:26:11.052Z,2.57
2022-11-04T09:28:38.898Z,1.90
2022-11-04T09:31:09.066Z,2.40
2022-11-04T09:33:36.688Z,2.13
2022-11-04T09:36:04.701Z,2.40
2022-11-04T09:38:32.493Z,1.90
2022-11-04T09:41:00.709Z,2.50
2022-11-04T09:43:44.099Z,2.13
2022-11-04T09:46:15.332Z,2.23
2022-11-04T09:48:48.337Z,1.90
2022-11-04T09:51:32.946Z,2.23
2022-11-04T09:54:18.618Z,1.80
2022-11-04T09:56:51.348Z,1.73
2022-11-04T09:59:29.481Z,2.40
2022-11-04T10:06:25.255Z,2.13
2022-11-04T10:09:11.572Z,1.57
2022-11-04T10:11:39.119Z,1.67
2022-11-04T10:14:35.328Z,2.77
2022-11-04T10:17:24.576Z,2.10
2022-11-04T10:20:36.457Z,1.60
2022-11-04T10:23:14.544Z,2.47
2022-11-04T10:25:57.484Z,2.37
2022-11-04T10:28:33.067Z,2.10
2022-11-04T10:31:01.173Z,1.73
2022-11-04T10:33:40.579Z,1.93
2022-11-04T10:36:10.632Z,1.80
2022-11-04T10:38:50.475Z,1.90
2022-11-04T10:41:17.980Z,2.23
2022-11-04T10:43:45.875Z,1.87
2022-11-04T10:46:24.924Z,1.87
2022-11-04T10:49:04.096Z,2.10
2022-11-04T10:51:31.797Z,2.00
2022-11-04T10:54:01.186Z,2.07
2022-11-04T10:56:36.085Z,2.30
2022-11-04T10:59:21.717Z,1.77
2022-11-04T11:01:52.424Z,2.27
2022-11-04T11:04:29.098Z,1.60
2022-11-04T11:06:58.700Z,2.53
2022-11-04T11:09:29.743Z,2.23
2022-11-04T11:12:49.428Z,2.50
2022-11-04T11:15:27.900Z,2.73
2022-11-04T11:18:08.006Z,2.60
2022-11-04T11:20:40.890Z,2.43
2022-11-04T11:23:51.321Z,2.93
2022-11-04T11:26:21.472Z,2.53
2022-11-04T11:28:58.995Z,2.20
2022-11-04T11:31:39.990Z,1.83
2022-11-04T11:34:31.259Z,1.83
2022-11-04T11:37:02.250Z,2.43
2022-11-04T11:39:32.378Z,1.87
2022-11-04T11:42:11.313Z,2.00
2022-11-04T11:45:00.008Z,1.90
2022-11-04T11:47:30.583Z,2.43
2022-11-04T11:50:18.776Z,1.70
2022-11-04T11:52:49.943Z,1.63
2022-11-04T11:55:33.069Z,1.63
2022-11-04T12:02:01.258Z,2.00
2022-11-04T12:11:11.601Z,1.43
2022-11-04T12:13:46.736Z,1.67
2022-11-04T12:16:29.221Z,1.77
2022-11-04T12:19:29.454Z,2.50
2022-11-04T12:22:22.060Z,2.43
2022-11-04T12:25:17.487Z,2.07
2022-11-04T12:27:59.325Z,2.23
2022-11-04T12:30:32.568Z,1.40
2022-11-04T12:33:02.983Z,1.80
2022-11-04T12:35:33.612Z,1.70
2022-11-04T12:38:35.953Z,1.80
2022-11-04T12:41:37.913Z,1.67
2022-11-04T12:44:55.989Z,0.83
2022-11-04T12:47:38.114Z,1.20
2022-11-04T12:50:23.876Z,1.00
2022-11-04T12:53:21.006Z,1.10
2022-11-04T12:56:11.320Z,1.60
2022-11-04T12:58:56.890Z,1.67
2022-11-04T13:01:48.318Z,1.53
2022-11-04T13:04:46.447Z,1.53
2022-11-04T13:07:24.054Z,1.90
2022-11-04T13:09:59.571Z,2.00
2022-11-04T13:12:47.312Z,1.60
2022-11-04T13:15:26.053Z,3.00
2022-11-04T13:18:00.270Z,1.70
2022-11-04T13:20:53.315Z,1.60
2022-11-04T13:23:45.392Z,1.37
2022-11-04T13:26:17.804Z,2.33
2022-11-04T13:28:56.164Z,1.37
2022-11-04T13:31:31.975Z,1.40
2022-11-04T13:34:32.983Z,1.73
2022-11-04T13:37:22.557Z,1.60
2022-11-04T13:40:04.249Z,2.33
2022-11-04T13:42:49.936Z,1.30
2022-11-04T13:45:22.775Z,1.20
2022-11-04T13:58:47.033Z,1.65
2022-11-04T14:01:24.360Z,1.50
2022-11-04T14:04:01.741Z,1.60
2022-11-04T14:06:49.673Z,2.20
2022-11-04T14:09:32.900Z,1.40
2022-11-04T14:12:18.612Z,1.55
2022-11-04T14:14:47.125Z,1.83
2022-11-04T14:17:33.323Z,1.40
2022-11-04T14:20:19.531Z,1.58
2022-11-04T14:22:54.686Z,10.18
2022-11-04T14:25:26.885Z,2.65
2022-11-04T14:28:00.399Z,1.98
2022-11-04T14:30:36.310Z,1.83
2022-11-04T14:33:19.685Z,1.17
2022-11-04T14:35:47.608Z,1.30
2022-11-04T14:38:32.682Z,1.70
2022-11-04T14:41:25.199Z,1.47
2022-11-04T14:44:00.619Z,1.77
2022-11-04T14:46:35.775Z,1.70
2022-11-04T14:49:03.811Z,1.60
2022-11-04T14:51:40.040Z,2.00
2022-11-04T14:54:22.887Z,1.70
2022-11-04T14:56:52.717Z,1.97
2022-11-04T14:59:28.888Z,1.90
2022-11-04T15:01:56.772Z,1.80
2022-11-04T15:04:29.523Z,1.57
2022-11-04T15:06:59.269Z,1.80
2022-11-04T15:09:39.602Z,1.77
2022-11-04T15:12:28.851Z,1.80
2022-11-04T15:14:59.898Z,1.80
2022-11-04T15:17:31.814Z,1.77
2022-11-04T15:20:04.851Z,1.80
2022-11-04T15:22:32.503Z,1.80
2022-11-04T15:25:05.923Z,1.57
2022-11-04T15:27:34.852Z,2.37
2022-11-04T15:30:04.221Z,1.40
2022-11-04T15:32:32.243Z,1.87
2022-11-04T15:35:00.615Z,1.43
2022-11-04T15:37:30.236Z,1.50
2022-11-04T15:39:59.086Z,1.40
2022-11-04T15:42:43.732Z,1.83
2022-11-04T15:45:37.948Z,1.70
2022-11-04T15:48:25.055Z,1.80
2022-11-04T15:51:16.013Z,1.87
2022-11-04T15:55:02.811Z,2.20
2022-11-04T15:58:11.855Z,2.33
2022-11-04T16:00:54.521Z,2.40
2022-11-04T16:03:24.418Z,2.43
2022-11-04T16:06:07.279Z,2.17
2022-11-04T16:08:35.526Z,2.10
2022-11-04T16:11:13.869Z,2.63
2022-11-04T16:13:42.259Z,2.40
2022-11-04T16:16:27.159Z,2.50
2022-11-04T16:18:57.123Z,3.00
2022-11-04T16:21:36.146Z,3.67
2022-11-04T16:24:23.388Z,3.40
2022-11-04T16:26:54.758Z,3.63
2022-11-04T16:29:31.441Z,2.70
2022-11-04T16:32:24.517Z,3.23
2022-11-04T16:34:54.934Z,3.57
2022-11-04T16:37:24.930Z,3.33
2022-11-04T16:39:55.518Z,3.17
2022-11-04T16:42:25.895Z,6.57
2022-11-04T16:45:01.894Z,6.13
2022-11-04T16:47:30.961Z,4.40
2022-11-04T16:50:02.680Z,4.93
2022-11-04T16:52:41.586Z,4.70
2022-11-04T16:55:13.373Z,4.13
2022-11-04T16:57:41.589Z,3.30
2022-11-04T17:00:24.185Z,2.30
2022-11-04T17:02:52.783Z,2.10
2022-11-04T17:05:21.174Z,2.00
2022-11-04T17:08:25.361Z,2.40
2022-11-04T17:41:57.200Z,3.50
2022-11-04T17:44:24.792Z,4.00
2022-11-04T17:46:52.375Z,3.17
2022-11-04T17:49:22.366Z,3.20
2022-11-04T17:51:53.726Z,3.03
2022-11-04T17:54:22.442Z,2.30
2022-11-04T17:56:50.027Z,2.80
2022-11-04T17:59:18.977Z,2.60
2022-11-04T18:01:47.083Z,2.17
2022-11-04T18:04:17.540Z,2.60
2022-11-04T18:06:45.317Z,2.37
2022-11-04T18:09:14.940Z,2.60
2022-11-04T18:12:02.597Z,3.10
2022-11-04T18:14:30.911Z,2.30
2022-11-04T18:16:59.434Z,2.60
2022-11-04T18:19:27.893Z,2.47
2022-11-04T18:21:55.768Z,2.57
2022-11-04T18:24:24.311Z,2.80
2022-11-04T18:26:54.012Z,3.57
2022-11-04T18:36:09.972Z,3.43
2022-11-04T18:39:20.576Z,3.57
2022-11-04T18:42:10.499Z,3.50
2022-11-04T18:44:59.157Z,3.40
2022-11-04T18:47:27.292Z,3.30
2022-11-04T18:49:55.252Z,3.37
2022-11-04T18:52:23.445Z,3.03
2022-11-04T18:54:52.136Z,3.27
2022-11-04T18:57:24.389Z,3.90
2022-11-04T18:59:52.198Z,4.17
2022-11-04T19:02:23.369Z,3.60
2022-11-04T19:04:51.701Z,3.33
2022-11-04T19:07:20.612Z,3.87
2022-11-04T19:09:48.299Z,3.10
2022-11-04T19:12:37.530Z,3.23
2022-11-04T19:15:05.819Z,3.73
2022-11-04T19:17:43.127Z,3.43
2022-11-04T19:20:13.341Z,2.90
2022-11-04T19:22:41.517Z,2.83
2022-11-04T19:25:10.263Z,3.03
2022-11-04T19:27:43.659Z,3.13
2022-11-04T19:30:24.857Z,3.10
2022-11-04T19:33:02.538Z,3.00
2022-11-04T19:35:43.905Z,2.43
2022-11-04T19:38:11.852Z,2.60
2022-11-04T19:40:39.694Z,2.43
2022-11-04T19:43:19.212Z,3.00
2022-11-04T19:45:49.417Z,2.80
2022-11-04T19:48:19.024Z,2.60
2022-11-04T19:50:51.196Z,2.73
2022-11-04T19:53:18.852Z,2.80
2022-11-04T19:55:55.330Z,2.80
2022-11-04T19:58:23.242Z,2.67
2022-11-04T20:00:51.027Z,3.10
2022-11-04T20:03:21.955Z,3.20
2022-11-04T20:05:58.925Z,3.00
2022-11-04T20:08:26.584Z,3.30
2022-11-04T20:10:54.278Z,2.90
2022-11-04T20:13:42.634Z,3.00
2022-11-04T20:16:31.192Z,3.00
2022-11-04T20:19:04.709Z,3.20
2022-11-04T20:21:41.079Z,2.55
2022-11-04T20:24:13.306Z,3.30
2022-11-04T20:26:44.126Z,3.30
2022-11-04T20:29:17.790Z,4.00
2022-11-04T20:31:52.185Z,3.00
2022-11-04T20:34:19.911Z,3.50
2022-11-04T20:36:47.609Z,3.50
2022-11-04T20:39:20.057Z,3.50
2022-11-04T20:41:52.936Z,3.37
2022-11-04T20:44:25.606Z,3.40
2022-11-04T20:46:53.233Z,3.70
2022-11-04T20:49:21.040Z,4.23
2022-11-04T20:51:54.750Z,4.37
2022-11-04T20:54:27.791Z,4.10
2022-11-04T20:56:55.734Z,4.67
2022-11-04T20:59:24.669Z,4.93
2022-11-04T21:01:52.446Z,5.77
2022-11-04T21:04:21.415Z,5.53
2022-11-04T21:06:50.651Z,5.10
2022-11-04T21:09:20.848Z,4.97
2022-11-04T21:11:51.246Z,4.20
2022-11-04T21:14:19.793Z,4.27
2022-11-04T21:16:50.902Z,4.87
2022-11-04T21:19:24.379Z,4.20
2022-11-04T21:22:15.809Z,5.00
2022-11-04T21:24:44.905Z,5.80
2022-11-04T21:27:12.492Z,5.13
2022-11-04T21:29:40.436Z,5.13
2022-11-04T21:32:10.074Z,5.30
2022-11-04T21:34:38.166Z,5.47
2022-11-04T21:37:05.877Z,4.27
2022-11-04T21:39:33.615Z,5.03
2022-11-04T21:42:01.776Z,5.73
2022-11-04T21:44:29.761Z,5.47
2022-11-04T21:46:57.414Z,5.33
2022-11-04T21:49:25.071Z,5.13
2022-11-04T21:51:52.679Z,4.27
2022-11-04T21:54:20.312Z,4.90
2022-11-04T21:56:50.528Z,4.97
2022-11-04T21:59:18.730Z,4.43
2022-11-04T22:01:46.620Z,4.87
2022-11-04T22:04:17.472Z,5.03
2022-11-04T22:06:47.040Z,4.90
2022-11-04T22:09:14.780Z,4.40
2022-11-04T22:11:42.575Z,5.30
2022-11-04T22:14:12.352Z,5.50
2022-11-04T22:16:40.408Z,5.67
2022-11-04T22:19:10.748Z,4.93
2022-11-04T22:21:40.578Z,4.97
2022-11-04T22:24:13.512Z,5.17
2022-11-04T22:26:41.986Z,5.20
2022-11-04T22:29:12.292Z,5.47
2022-11-04T22:31:43.594Z,4.73
2022-11-04T22:34:11.450Z,4.60
2022-11-04T22:36:39.864Z,4.77
2022-11-04T22:39:11.805Z,4.63
2022-11-04T22:41:44.279Z,4.77
2022-11-04T22:44:13.732Z,4.80
2022-11-04T22:46:41.560Z,5.10
2022-11-04T22:49:09.221Z,4.50
2022-11-04T22:51:36.929Z,5.10
2022-11-04T22:54:08.525Z,5.40
2022-11-04T22:56:38.144Z,5.97
2022-11-04T22:59:06.309Z,6.10
2022-11-04T23:01:34.398Z,5.43
2022-11-04T23:04:05.622Z,5.33
2022-11-04T23:06:33.477Z,5.57
2022-11-04T23:09:01.433Z,5.47
2022-11-04T23:11:49.138Z,5.70
2022-11-04T23:14:39.517Z,5.20
2022-11-04T23:17:38.352Z,5.37
2022-11-04T23:20:12.885Z,5.23
2022-11-04T23:22:59.592Z,5.10
2022-11-04T23:25:27.754Z,5.40
2022-11-04T23:28:14.289Z,5.50
2022-11-04T23:30:47.129Z,5.80
2022-11-04T23:33:15.511Z,5.90
2022-11-04T23:36:03.954Z,5.13
2022-11-04T23:38:32.474Z,5.40
2022-11-04T23:41:25.871Z,5.07
2022-11-04T23:43:53.731Z,5.30
2022-11-04T23:46:43.408Z,5.73
2022-11-04T23:49:14.712Z,5.40
2022-11-04T23:52:01.057Z,5.43
2022-11-04T23:54:47.359Z,6.07
2022-11-04T23:57:36.184Z,6.20
